createdAt,value
2022-09-12T00:00:36.267Z,2.20
2022-09-12T00:03:39.073Z,3.93
2022-09-12T00:06:41.232Z,2.23
2022-09-12T00:09:43.371Z,2.60
2022-09-12T00:12:45.544Z,2.30
2022-09-12T00:15:48.217Z,2.30
2022-09-12T00:18:50.745Z,2.17
2022-09-12T00:21:53.437Z,2.20
2022-09-12T00:24:55.279Z,2.90
2022-09-12T00:27:57.907Z,2.00
2022-09-12T00:30:59.986Z,2.33
2022-09-12T00:34:02.771Z,2.23
2022-09-12T00:37:04.876Z,2.20
2022-09-12T00:40:07.951Z,2.43
2022-09-12T00:43:14.973Z,2.07
2022-09-12T00:46:24.447Z,1.93
2022-09-12T00:49:49.978Z,2.03
2022-09-12T00:53:03.575Z,2.03
2022-09-12T00:56:05.700Z,2.50
2022-09-12T00:59:19.937Z,2.20
2022-09-12T01:02:22.057Z,2.17
2022-09-12T01:05:24.975Z,2.23
2022-09-12T01:08:28.031Z,1.90
2022-09-12T01:11:32.152Z,1.87
2022-09-12T01:14:35.101Z,2.17
2022-09-12T01:18:08.138Z,1.80
2022-09-12T01:21:51.686Z,2.27
2022-09-12T01:25:08.301Z,2.10
2022-09-12T01:28:31.473Z,1.90
2022-09-12T01:31:47.845Z,1.87
2022-09-12T01:34:56.346Z,1.70
2022-09-12T01:38:27.511Z,2.13
2022-09-12T01:41:52.354Z,1.90
2022-09-12T01:45:03.144Z,2.30
2022-09-12T01:48:11.580Z,2.27
2022-09-12T01:51:22.449Z,2.13
2022-09-12T01:54:52.089Z,2.00
2022-09-12T01:58:08.838Z,2.60
2022-09-12T02:01:17.025Z,2.40
2022-09-12T02:04:23.557Z,2.33
2022-09-12T02:07:37.228Z,2.23
2022-09-12T02:10:46.970Z,2.37
2022-09-12T02:13:57.711Z,2.13
2022-09-12T02:17:07.712Z,2.33
2022-09-12T02:20:26.035Z,2.13
2022-09-12T02:23:41.648Z,2.40
2022-09-12T02:27:08.653Z,2.00
2022-09-12T02:30:13.184Z,2.00
2022-09-12T02:33:26.949Z,1.97
2022-09-12T02:36:50.718Z,2.73
2022-09-12T02:39:55.392Z,1.93
2022-09-12T02:42:57.822Z,2.60
2022-09-12T02:45:59.903Z,2.40
2022-09-12T02:49:01.893Z,2.30
2022-09-12T02:52:04.698Z,2.17
2022-09-12T02:55:07.617Z,2.03
2022-09-12T02:58:19.127Z,2.10
2022-09-12T03:01:58.882Z,2.33
2022-09-12T03:05:17.267Z,2.40
2022-09-12T03:08:40.690Z,2.60
2022-09-12T03:12:01.422Z,2.37
2022-09-12T03:15:18.292Z,2.37
2022-09-12T03:18:51.128Z,2.00
2022-09-12T03:21:56.223Z,2.17
2022-09-12T03:25:13.787Z,1.70
2022-09-12T03:28:17.858Z,1.90
2022-09-12T03:31:20.372Z,2.23
2022-09-12T03:34:23.518Z,2.00
2022-09-12T03:37:25.682Z,1.87
2022-09-12T03:40:27.693Z,1.73
2022-09-12T03:43:29.914Z,2.10
2022-09-12T03:46:32.382Z,2.17
2022-09-12T03:49:34.288Z,2.53
2022-09-12T03:52:37.157Z,2.13
2022-09-12T03:55:39.400Z,2.17
2022-09-12T03:58:42.686Z,2.53
2022-09-12T04:01:44.802Z,2.53
2022-09-12T04:04:49.198Z,2.50
2022-09-12T04:07:51.497Z,2.50
2022-09-12T04:10:53.722Z,1.93
2022-09-12T04:13:55.693Z,2.17
2022-09-12T04:16:57.659Z,2.10
2022-09-12T04:19:59.853Z,2.27
2022-09-12T04:23:01.825Z,1.90
2022-09-12T04:26:06.822Z,2.10
2022-09-12T04:29:12.122Z,2.43
2022-09-12T04:32:15.440Z,2.60
2022-09-12T04:35:17.531Z,2.43
2022-09-12T04:38:19.457Z,2.33
2022-09-12T04:41:24.122Z,2.27
2022-09-12T04:44:26.103Z,2.10
2022-09-12T04:47:29.051Z,2.37
2022-09-12T04:50:31.166Z,2.10
2022-09-12T04:53:33.478Z,2.47
2022-09-12T04:56:38.867Z,2.10
2022-09-12T04:59:41.571Z,2.10
2022-09-12T05:02:43.800Z,1.93
2022-09-12T05:05:45.799Z,2.53
2022-09-12T05:08:47.997Z,2.27
2022-09-12T05:12:05.850Z,1.97
2022-09-12T05:15:09.075Z,2.70
2022-09-12T05:18:10.887Z,2.27
2022-09-12T05:21:16.097Z,2.20
2022-09-12T05:24:18.078Z,2.10
2022-09-12T05:27:20.391Z,2.30
2022-09-12T05:30:22.314Z,2.20
2022-09-12T05:33:25.196Z,1.70
2022-09-12T05:36:29.656Z,1.97
2022-09-12T05:39:32.682Z,1.83
2022-09-12T05:42:34.651Z,1.63
2022-09-12T05:45:36.650Z,1.83
2022-09-12T05:48:40.790Z,1.70
2022-09-12T05:51:45.736Z,1.90
2022-09-12T05:54:48.614Z,1.80
2022-09-12T05:57:52.077Z,1.67
2022-09-12T06:00:54.042Z,2.13
2022-09-12T06:03:58.888Z,1.97
2022-09-12T06:07:00.849Z,1.87
2022-09-12T06:10:03.922Z,1.70
2022-09-12T06:13:06.300Z,1.90
2022-09-12T06:16:18.988Z,1.70
2022-09-12T06:19:23.952Z,2.03
2022-09-12T06:22:25.872Z,1.67
2022-09-12T06:25:27.860Z,1.87
2022-09-12T06:28:29.792Z,1.97
2022-09-12T06:31:37.507Z,1.87
2022-09-12T06:34:39.776Z,2.37
2022-09-12T06:37:44.806Z,2.03
2022-09-12T06:40:47.658Z,1.90
2022-09-12T06:43:49.532Z,1.33
2022-09-12T06:46:51.787Z,1.60
2022-09-12T06:49:54.212Z,1.60
2022-09-12T06:52:56.162Z,1.70
2022-09-12T06:56:03.559Z,1.60
2022-09-12T06:59:05.637Z,1.87
2022-09-12T07:02:10.389Z,1.90
2022-09-12T07:05:13.328Z,1.60
2022-09-12T07:08:15.261Z,1.90
2022-09-12T07:11:24.107Z,1.37
2022-09-12T07:14:26.317Z,1.50
2022-09-12T07:17:28.243Z,1.30
2022-09-12T07:20:33.333Z,1.63
2022-09-12T07:23:35.235Z,1.13
2022-09-12T07:26:38.867Z,1.20
2022-09-12T07:29:41.217Z,1.10
2022-09-12T07:32:43.119Z,1.17
2022-09-12T07:35:45.113Z,1.20
2022-09-12T07:38:47.253Z,1.50
2022-09-12T07:41:49.807Z,1.20
2022-09-12T07:44:52.782Z,1.40
2022-09-12T07:47:55.113Z,1.10
2022-09-12T07:51:01.582Z,1.20
2022-09-12T07:54:08.642Z,1.23
2022-09-12T07:57:10.608Z,1.40
2022-09-12T08:00:12.999Z,1.20
2022-09-12T08:03:15.184Z,0.93
2022-09-12T08:06:24.307Z,1.30
2022-09-12T08:09:26.878Z,1.10
2022-09-12T08:12:29.362Z,1.17
2022-09-12T08:15:31.695Z,1.30
2022-09-12T08:18:35.811Z,1.20
2022-09-12T08:21:37.623Z,1.63
2022-09-12T08:24:40.647Z,1.17
2022-09-12T08:27:43.353Z,1.13
2022-09-12T08:30:45.413Z,1.20
2022-09-12T08:33:48.054Z,1.30
2022-09-12T08:36:51.336Z,1.00
2022-09-12T08:39:53.525Z,1.10
2022-09-12T08:43:22.021Z,1.07
2022-09-12T08:46:30.352Z,1.00
2022-09-12T08:49:35.332Z,1.00
2022-09-12T08:53:05.332Z,0.80
2022-09-12T08:56:11.982Z,1.17
2022-09-12T08:59:14.087Z,1.30
2022-09-12T09:02:22.995Z,0.90
2022-09-12T09:05:27.874Z,1.08
2022-09-12T09:08:47.343Z,1.10
2022-09-12T09:12:11.148Z,0.90
2022-09-12T09:15:26.653Z,1.27
2022-09-12T09:18:35.241Z,0.82
2022-09-12T09:22:00.307Z,1.00
2022-09-12T09:25:07.357Z,0.90
2022-09-12T09:28:24.481Z,1.10
2022-09-12T09:31:38.837Z,0.90
2022-09-12T09:34:41.842Z,0.90
2022-09-12T09:37:50.429Z,0.90
2022-09-12T09:41:02.340Z,1.00
2022-09-12T09:44:04.664Z,0.82
2022-09-12T09:47:07.092Z,1.00
2022-09-12T09:50:14.566Z,1.00
2022-09-12T09:53:35.043Z,1.05
2022-09-12T09:56:43.155Z,0.90
2022-09-12T09:59:45.153Z,1.20
2022-09-12T10:03:13.797Z,0.98
2022-09-12T10:06:34.354Z,0.90
2022-09-12T10:09:37.026Z,1.00
2022-09-12T10:12:39.605Z,0.82
2022-09-12T10:15:57.946Z,0.80
2022-09-12T10:19:04.318Z,0.90
2022-09-12T10:22:07.534Z,0.80
2022-09-12T10:25:12.122Z,1.00
2022-09-12T10:28:33.249Z,1.00
2022-09-12T10:32:17.327Z,0.80
2022-09-12T10:35:22.165Z,1.00
2022-09-12T10:38:28.929Z,1.35
2022-09-12T10:41:38.624Z,1.02
2022-09-12T10:44:54.647Z,1.00
2022-09-12T10:48:00.072Z,0.90
2022-09-12T10:51:04.247Z,1.00
2022-09-12T10:54:09.191Z,1.00
2022-09-12T10:57:19.931Z,0.90
2022-09-12T11:00:28.219Z,0.93
2022-09-12T11:04:06.594Z,0.75
2022-09-12T11:07:31.361Z,0.70
2022-09-12T11:10:48.633Z,0.90
2022-09-12T11:14:16.137Z,0.95
2022-09-12T11:17:52.349Z,0.77
2022-09-12T11:21:51.107Z,1.00
2022-09-12T11:25:07.647Z,0.80
2022-09-12T11:28:34.950Z,1.05
2022-09-12T11:32:04.346Z,0.80
2022-09-12T11:35:17.542Z,0.90
2022-09-12T11:38:29.162Z,1.02
2022-09-12T11:41:34.082Z,0.95
2022-09-12T11:44:40.338Z,1.02
2022-09-12T11:47:45.833Z,0.90
2022-09-12T11:50:48.273Z,1.08
2022-09-12T11:54:16.155Z,0.80
2022-09-12T11:57:44.263Z,0.70
2022-09-12T12:00:53.117Z,0.80
2022-09-12T12:03:57.296Z,0.80
2022-09-12T12:07:06.160Z,0.90
2022-09-12T12:10:39.802Z,0.93
2022-09-12T12:13:56.983Z,1.08
2022-09-12T12:16:59.411Z,1.05
2022-09-12T12:20:08.176Z,1.10
2022-09-12T12:23:30.592Z,1.08
2022-09-12T12:26:41.502Z,1.17
2022-09-12T12:29:48.093Z,1.13
2022-09-12T12:32:50.282Z,1.10
2022-09-12T12:36:02.065Z,1.73
2022-09-12T12:39:32.933Z,1.35
2022-09-12T12:42:35.280Z,1.20
2022-09-12T12:45:37.159Z,1.27
2022-09-12T12:49:05.700Z,1.33
2022-09-12T12:52:17.301Z,1.25
2022-09-12T12:55:41.410Z,1.55
2022-09-12T12:58:43.411Z,1.23
2022-09-12T13:01:55.714Z,1.13
2022-09-12T13:05:00.196Z,1.15
2022-09-12T13:08:29.094Z,1.00
2022-09-12T13:11:39.144Z,1.10
2022-09-12T13:14:44.055Z,1.30
2022-09-12T13:17:47.380Z,1.20
2022-09-12T13:21:00.456Z,1.20
2022-09-12T13:24:13.635Z,1.10
2022-09-12T13:27:26.661Z,1.20
2022-09-12T13:30:31.699Z,1.40
2022-09-12T13:33:47.250Z,1.35
2022-09-12T13:37:08.704Z,1.40
2022-09-12T13:40:29.672Z,1.10
2022-09-12T13:43:47.071Z,1.10
2022-09-12T13:46:49.678Z,1.00
2022-09-12T13:49:52.019Z,1.17
2022-09-12T13:52:59.810Z,1.08
2022-09-12T13:56:02.097Z,1.13
2022-09-12T13:59:11.205Z,1.00
2022-09-12T14:02:20.873Z,0.93
2022-09-12T14:05:25.830Z,1.10
2022-09-12T14:08:27.766Z,1.00
2022-09-12T14:11:31.319Z,0.88
2022-09-12T14:14:42.359Z,1.20
2022-09-12T14:17:52.115Z,1.02
2022-09-12T14:20:57.260Z,1.00
2022-09-12T14:24:01.656Z,0.85
2022-09-12T14:27:05.054Z,0.88
2022-09-12T14:30:31.018Z,0.90
2022-09-12T14:33:47.892Z,0.70
2022-09-12T14:36:56.740Z,1.00
2022-09-12T14:39:59.224Z,0.90
2022-09-12T14:43:01.667Z,0.85
2022-09-12T14:46:05.782Z,1.00
2022-09-12T14:49:12.454Z,1.02
2022-09-12T14:52:33.964Z,0.90
2022-09-12T14:55:43.701Z,0.73
2022-09-12T14:58:45.635Z,1.00
2022-09-12T15:01:48.081Z,0.93
2022-09-12T15:04:52.910Z,1.15
2022-09-12T15:08:01.951Z,1.50
2022-09-12T15:11:06.785Z,1.10
2022-09-12T15:14:15.248Z,1.42
2022-09-12T15:17:17.351Z,1.05
2022-09-12T15:20:19.618Z,1.02
2022-09-12T15:23:48.447Z,1.13
2022-09-12T15:26:51.280Z,1.27
2022-09-12T15:29:56.541Z,1.10
2022-09-12T15:33:00.297Z,1.02
2022-09-12T15:36:02.413Z,1.00
2022-09-12T15:39:05.025Z,1.23
2022-09-12T15:42:07.239Z,3.45
2022-09-12T15:45:21.563Z,3.85
2022-09-12T15:48:23.598Z,1.90
2022-09-12T15:51:25.595Z,1.40
2022-09-12T15:54:27.508Z,1.60
2022-09-12T15:57:30.256Z,2.72
2022-09-12T16:00:32.175Z,1.20
2022-09-12T16:03:35.579Z,1.23
2022-09-12T16:06:37.732Z,1.30
2022-09-12T16:09:39.799Z,1.85
2022-09-12T16:12:41.812Z,1.48
2022-09-12T16:15:43.979Z,1.58
2022-09-12T16:18:46.077Z,1.33
2022-09-12T16:21:48.547Z,1.30
2022-09-12T16:24:50.450Z,1.38
2022-09-12T16:27:53.861Z,1.63
2022-09-12T16:31:00.588Z,1.35
2022-09-12T16:34:02.549Z,1.20
2022-09-12T16:37:04.604Z,1.60
2022-09-12T16:40:08.044Z,1.63
2022-09-12T16:43:09.994Z,1.38
2022-09-12T16:46:19.757Z,1.42
2022-09-12T16:49:21.994Z,1.40
2022-09-12T16:52:24.280Z,1.40
2022-09-12T16:55:26.640Z,1.30
2022-09-12T16:58:28.769Z,1.35
2022-09-12T17:01:30.710Z,1.30
2022-09-12T17:04:32.639Z,1.63
2022-09-12T17:07:35.074Z,1.25
2022-09-12T17:10:41.554Z,1.20
2022-09-12T17:14:04.465Z,1.40
2022-09-12T17:17:07.625Z,1.37
2022-09-12T17:20:09.660Z,1.60
2022-09-12T17:23:11.694Z,1.43
2022-09-12T17:26:13.858Z,2.10
2022-09-12T17:29:16.832Z,1.40
2022-09-12T17:32:18.781Z,1.67
2022-09-12T17:35:21.622Z,1.60
2022-09-12T17:38:25.955Z,1.80
2022-09-12T17:41:32.509Z,1.80
2022-09-12T17:44:36.159Z,1.70
2022-09-12T17:47:42.099Z,1.77
2022-09-12T17:50:44.071Z,1.70
2022-09-12T17:53:46.029Z,1.67
2022-09-12T17:56:56.480Z,1.63
2022-09-12T17:59:58.364Z,1.60
2022-09-12T18:03:00.258Z,1.77
2022-09-12T18:06:02.539Z,1.40
2022-09-12T18:09:07.752Z,1.67
2022-09-12T18:12:10.266Z,1.90
2022-09-12T18:15:12.149Z,1.90
2022-09-12T18:18:14.067Z,1.60
2022-09-12T18:21:15.929Z,1.87
2022-09-12T18:24:17.929Z,1.80
2022-09-12T18:27:19.857Z,1.73
2022-09-12T18:30:23.619Z,1.43
2022-09-12T18:33:25.618Z,1.80
2022-09-12T18:36:29.144Z,2.57
2022-09-12T18:39:31.042Z,1.97
2022-09-12T18:42:33.203Z,1.93
2022-09-12T18:45:35.562Z,2.17
2022-09-12T18:48:37.855Z,1.90
2022-09-12T18:51:42.239Z,1.90
2022-09-12T18:54:44.231Z,1.93
2022-09-12T18:57:47.319Z,1.90
2022-09-12T19:00:49.793Z,1.80
2022-09-12T19:03:52.674Z,2.20
2022-09-12T19:06:54.541Z,2.10
2022-09-12T19:09:56.459Z,2.07
2022-09-12T19:12:59.564Z,1.97
2022-09-12T19:16:01.810Z,2.20
2022-09-12T19:19:03.890Z,2.13
2022-09-12T19:22:05.958Z,2.00
2022-09-12T19:25:08.344Z,2.67
2022-09-12T19:28:10.273Z,2.10
2022-09-12T19:31:14.915Z,1.63
2022-09-12T19:34:17.395Z,2.25
2022-09-12T19:37:19.240Z,2.03
2022-09-12T19:40:21.174Z,1.50
2022-09-12T19:43:23.089Z,2.40
2022-09-12T19:46:26.281Z,2.00
2022-09-12T19:49:28.185Z,1.83
2022-09-12T19:52:30.215Z,2.27
2022-09-12T19:55:32.139Z,2.30
2022-09-12T19:58:39.144Z,2.20
2022-09-12T20:01:41.140Z,2.20
2022-09-12T20:04:43.693Z,2.00
2022-09-12T20:07:45.769Z,2.23
2022-09-12T20:10:47.800Z,2.03
2022-09-12T20:13:49.844Z,2.40
2022-09-12T20:16:51.779Z,1.90
2022-09-12T20:19:56.075Z,1.90
2022-09-12T20:22:58.194Z,1.90
2022-09-12T20:26:04.674Z,2.13
2022-09-12T20:29:07.520Z,1.83
2022-09-12T20:32:09.419Z,2.10
2022-09-12T20:35:11.610Z,1.93
2022-09-12T20:38:13.579Z,2.03
2022-09-12T20:41:16.045Z,2.20
2022-09-12T20:44:18.035Z,2.00
2022-09-12T20:47:19.899Z,2.70
2022-09-12T20:50:21.875Z,2.43
2022-09-12T20:53:24.485Z,2.20
2022-09-12T20:56:27.940Z,2.50
2022-09-12T20:59:30.604Z,2.07
2022-09-12T21:02:32.626Z,1.90
2022-09-12T21:05:34.775Z,2.20
2022-09-12T21:08:38.223Z,2.10
2022-09-12T21:11:40.118Z,2.60
2022-09-12T21:14:42.277Z,2.13
2022-09-12T21:17:44.390Z,2.43
2022-09-12T21:20:55.110Z,2.20
2022-09-12T21:24:02.927Z,2.20
2022-09-12T21:27:05.406Z,2.40
2022-09-12T21:30:07.804Z,2.97
2022-09-12T21:33:10.748Z,2.67
2022-09-12T21:36:12.715Z,2.37
2022-09-12T21:39:14.799Z,2.70
2022-09-12T21:42:16.713Z,2.03
2022-09-12T21:45:22.709Z,2.20
2022-09-12T21:48:25.700Z,2.33
2022-09-12T21:51:27.527Z,2.20
2022-09-12T21:54:29.444Z,2.20
2022-09-12T21:57:35.960Z,2.13
2022-09-12T22:00:38.822Z,2.37
2022-09-12T22:03:43.279Z,1.93
2022-09-12T22:06:45.174Z,2.07
2022-09-12T22:09:47.265Z,1.93
2022-09-12T22:12:49.239Z,2.13
2022-09-12T22:15:52.704Z,2.27
2022-09-12T22:18:54.709Z,2.13
2022-09-12T22:22:15.690Z,2.10
2022-09-12T22:25:17.609Z,2.50
2022-09-12T22:28:20.174Z,2.10
2022-09-12T22:31:22.401Z,2.20
2022-09-12T22:34:25.130Z,2.17
2022-09-12T22:37:27.120Z,1.97
2022-09-12T22:40:29.145Z,2.20
2022-09-12T22:43:32.506Z,2.80
2022-09-12T22:46:34.817Z,2.27
2022-09-12T22:49:37.000Z,1.97
2022-09-12T22:52:38.894Z,2.37
2022-09-12T22:55:40.851Z,2.43
2022-09-12T22:58:43.795Z,1.77
2022-09-12T23:01:45.939Z,2.07
2022-09-12T23:04:48.444Z,2.30
2022-09-12T23:07:51.394Z,2.23
2022-09-12T23:11:03.169Z,2.60
2022-09-12T23:14:05.098Z,2.03
2022-09-12T23:17:07.455Z,1.90
2022-09-12T23:20:09.799Z,2.80
2022-09-12T23:23:11.777Z,2.20
2022-09-12T23:26:17.684Z,2.30
2022-09-12T23:29:20.170Z,1.80
2022-09-12T23:32:22.029Z,2.07
2022-09-12T23:35:24.039Z,2.10
2022-09-12T23:38:26.458Z,2.20
2022-09-12T23:41:28.994Z,2.23
2022-09-12T23:44:31.004Z,2.33
2022-09-12T23:47:33.147Z,2.20
2022-09-12T23:50:35.345Z,1.90
2022-09-12T23:53:37.719Z,2.07
2022-09-12T23:56:39.564Z,1.83
2022-09-12T23:59:41.450Z,2.30
